Time;durP1;ratioP1;P1;durP2;ratioP2;P2;SDS_P1;SDS_P2;PMS_P1;PMS_P2;Temp;Humidity;BMP_temperature;BMP_pressure;BME280_temperature;BME280_humidity;BME280_pressure;Samples;Min_cycle;Max_cycle;Signal;HPM_P1;HPM_P2
2022/01/08 00:01:41;;;;;;;1.77;1.67;;;;;;;1.64;88.96;96351.41;5061826;28;20229;-67
2022/01/08 00:04:09;;;;;;;1.87;1.77;;;;;;;1.57;89.75;96339.69;5063838;28;20204;-67
2022/01/08 00:06:35;;;;;;;2.10;1.60;;;;;;;1.65;89.21;96321.81;5062793;28;20205;-67
2022/01/08 00:09:02;;;;;;;1.83;1.73;;;;;;;1.70;88.76;96324.13;5062844;28;20195;-67
2022/01/08 00:11:28;;;;;;;2.50;2.10;;;;;;;1.63;88.68;96321.06;5062489;28;20211;-66
2022/01/08 00:13:55;;;;;;;2.33;1.80;;;;;;;1.69;88.63;96312.03;5063087;28;20237;-66
2022/01/08 00:16:22;;;;;;;2.23;1.80;;;;;;;1.81;88.23;96319.88;5062880;28;20201;-68
2022/01/08 00:18:48;;;;;;;2.03;1.83;;;;;;;1.87;86.86;96303.03;5063351;28;20209;-66
2022/01/08 00:21:17;;;;;;;2.57;1.87;;;;;;;1.83;87.53;96305.00;5061325;28;20209;-68
2022/01/08 00:23:43;;;;;;;2.37;1.97;;;;;;;1.78;87.19;96299.22;5061635;28;20233;-67
2022/01/08 00:26:09;;;;;;;2.90;2.73;;;;;;;1.79;86.94;96282.66;5062597;28;20507;-66
2022/01/08 00:28:36;;;;;;;2.90;2.07;;;;;;;1.86;87.60;96270.91;5062794;28;20230;-66
2022/01/08 00:31:03;;;;;;;3.07;2.67;;;;;;;1.81;87.42;96282.56;5062583;28;20213;-65
2022/01/08 00:33:30;;;;;;;3.67;3.37;;;;;;;1.88;86.92;96284.66;5061804;28;20224;-66
2022/01/08 00:35:56;;;;;;;3.80;3.50;;;;;;;1.94;87.63;96276.47;5064391;28;20512;-67
2022/01/08 00:38:24;;;;;;;4.87;3.17;;;;;;;1.89;86.83;96272.47;5063222;28;20212;-67
2022/01/08 00:40:51;;;;;;;3.93;2.87;;;;;;;1.89;87.38;96264.66;5062015;28;20212;-72
2022/01/08 00:43:17;;;;;;;2.50;2.30;;;;;;;1.76;87.05;96262.03;5062524;28;20233;-67
2022/01/08 00:45:43;;;;;;;2.80;1.90;;;;;;;1.72;88.57;96267.53;5062291;28;20626;-65
2022/01/08 00:48:10;;;;;;;2.20;2.10;;;;;;;1.68;87.95;96266.03;5062447;28;20213;-66
2022/01/08 00:50:36;;;;;;;2.10;1.90;;;;;;;1.67;88.35;96262.59;5065062;28;20222;-66
2022/01/08 00:53:03;;;;;;;4.57;2.00;;;;;;;1.62;87.13;96262.06;5063092;28;20221;-73
2022/01/08 00:55:31;;;;;;;2.20;2.00;;;;;;;1.48;89.24;96257.75;5062207;28;20623;-75
2022/01/08 00:57:57;;;;;;;2.67;1.83;;;;;;;1.58;88.64;96264.97;5064023;28;21334;-73
2022/01/08 01:00:24;;;;;;;2.10;1.70;;;;;;;1.53;89.14;96257.44;5064056;28;20206;-67
2022/01/08 01:02:51;;;;;;;2.07;1.70;;;;;;;1.53;89.29;96257.44;5062089;28;20266;-76
2022/01/08 01:05:19;;;;;;;2.10;2.00;;;;;;;1.48;90.38;96254.28;5063476;28;20216;-74
2022/01/08 01:07:45;;;;;;;2.83;2.00;;;;;;;1.45;90.00;96251.88;5062890;28;20301;-76
2022/01/08 01:10:12;;;;;;;4.03;2.00;;;;;;;1.49;91.29;96245.53;5063724;28;20201;-75
2022/01/08 01:12:40;;;;;;;1.63;1.53;;;;;;;1.55;90.92;96250.38;5061612;28;20214;-76
2022/01/08 01:15:08;;;;;;;1.83;1.73;;;;;;;1.55;89.57;96252.97;5063848;28;20509;-77
2022/01/08 01:17:35;;;;;;;2.27;1.90;;;;;;;1.49;89.88;96261.16;5065566;28;20209;-77
2022/01/08 01:20:01;;;;;;;1.80;1.70;;;;;;;1.56;90.49;96277.25;5064705;28;20213;-76
2022/01/08 01:22:28;;;;;;;2.20;1.97;;;;;;;1.54;90.54;96274.75;5066526;28;20204;-71
2022/01/08 01:25:02;;;;;;;3.03;2.63;;;;;;;1.60;91.41;96282.16;5066859;28;20224;-71
2022/01/08 01:27:55;;;;;;;2.40;2.20;;;;;;;1.67;90.59;96291.25;5061433;28;20301;-70
2022/01/08 01:30:39;;;;;;;3.57;2.30;;;;;;;1.74;88.45;96276.91;5062711;28;20527;-71
2022/01/08 01:41:36;;;;;;;2.37;2.17;;;;;;;1.97;88.05;96263.22;5062100;28;20303;-69
2022/01/08 01:47:03;;;;;;;2.70;2.50;;;;;;;2.04;87.17;96278.47;5061688;28;20301;-68
2022/01/08 01:49:31;;;;;;;2.30;2.20;;;;;;;2.09;88.93;96281.63;5061851;28;20209;-67
2022/01/08 01:51:59;;;;;;;2.47;2.27;;;;;;;2.07;89.02;96276.50;5062091;28;20208;-68
2022/01/08 01:54:25;;;;;;;2.90;2.40;;;;;;;2.11;89.56;96269.31;5062722;28;20253;-68
2022/01/08 01:56:52;;;;;;;2.70;2.50;;;;;;;2.14;88.40;96263.88;5062031;28;20210;-69
2022/01/08 01:59:19;;;;;;;2.83;2.63;;;;;;;2.14;89.39;96253.44;5062381;28;20225;-69
2022/01/08 02:01:45;;;;;;;2.50;2.40;;;;;;;2.16;88.29;96265.44;5061948;28;20241;-69
2022/01/08 02:04:13;;;;;;;2.57;2.37;;;;;;;2.16;88.16;96268.06;5061677;28;20222;-68
2022/01/08 02:06:39;;;;;;;2.50;2.10;;;;;;;2.14;89.78;96272.56;5062741;28;20202;-67
2022/01/08 02:09:06;;;;;;;4.37;2.77;;;;;;;2.14;90.83;96263.88;5062487;28;20205;-67
2022/01/08 02:11:32;;;;;;;3.23;3.03;;;;;;;2.08;89.65;96251.25;5062183;28;20277;-70
2022/01/08 02:14:03;;;;;;;3.63;3.33;;;;;;;2.00;89.72;96252.59;5062856;28;20649;-69
2022/01/08 02:16:30;;;;;;;3.40;3.10;;;;;;;2.04;91.77;96252.38;5061994;28;20202;-69
2022/01/08 02:18:57;;;;;;;3.07;2.87;;;;;;;1.94;91.75;96247.78;5062199;28;20205;-69
2022/01/08 02:21:26;;;;;;;3.10;2.90;;;;;;;1.94;91.95;96239.97;5062758;28;20212;-69
2022/01/08 02:23:52;;;;;;;3.20;2.90;;;;;;;1.99;90.85;96240.47;5060891;28;20197;-69
2022/01/08 02:26:19;;;;;;;3.00;2.80;;;;;;;1.97;91.87;96242.38;5061238;28;21364;-69
2022/01/08 02:28:45;;;;;;;3.30;3.00;;;;;;;1.98;91.89;96244.03;5062366;28;20220;-70
2022/01/08 02:31:21;;;;;;;3.00;2.70;;;;;;;2.02;91.51;96220.38;5061302;28;20206;-69
2022/01/08 02:33:47;;;;;;;3.10;2.60;;;;;;;2.00;91.33;96221.31;5061428;28;20674;-66
2022/01/08 02:36:15;;;;;;;3.13;2.93;;;;;;;2.08;91.27;96226.03;5063246;28;20201;-67
2022/01/08 02:38:43;;;;;;;2.90;2.70;;;;;;;2.05;91.92;96226.22;5070171;28;20280;-67
2022/01/08 02:41:10;;;;;;;2.80;2.60;;;;;;;1.98;91.27;96228.38;5068795;28;20217;-69
2022/01/08 02:43:41;;;;;;;2.80;2.60;;;;;;;1.94;91.76;96221.72;5068075;28;20195;-70
2022/01/08 02:46:08;;;;;;;2.80;2.60;;;;;;;1.98;92.75;96209.31;5066377;28;20209;-67
2022/01/08 02:48:34;;;;;;;2.03;1.93;;;;;;;1.98;91.84;96207.50;5064888;28;20228;-68
2022/01/08 02:51:00;;;;;;;2.60;2.40;;;;;;;1.87;92.17;96215.25;5062591;28;20261;-66
2022/01/08 02:53:27;;;;;;;2.23;2.03;;;;;;;1.92;92.19;96218.34;5061430;28;20231;-66
2022/01/08 02:55:55;;;;;;;2.20;2.10;;;;;;;1.99;92.15;96224.84;5062133;28;20210;-65
2022/01/08 02:58:25;;;;;;;2.70;2.50;;;;;;;1.98;92.28;96230.97;5064492;28;20202;-67
2022/01/08 03:00:52;;;;;;;2.37;2.17;;;;;;;1.93;92.37;96222.66;5065512;28;20246;-70
2022/01/08 03:03:20;;;;;;;2.30;2.13;;;;;;;1.94;93.52;96226.09;5066548;28;20643;-69
2022/01/08 03:05:46;;;;;;;2.33;2.13;;;;;;;2.02;93.18;96202.13;5070333;28;20213;-68
2022/01/08 03:08:13;;;;;;;2.50;2.30;;;;;;;2.10;92.30;96234.56;5075420;28;20226;-73
2022/01/08 03:10:39;;;;;;;2.60;2.40;;;;;;;2.13;91.72;96220.47;5088294;28;20202;-70
2022/01/08 03:13:07;;;;;;;2.43;2.23;;;;;;;2.25;91.89;96222.28;5088227;28;20233;-68
2022/01/08 03:15:36;;;;;;;2.90;2.40;;;;;;;2.22;91.07;96219.88;5084433;28;20257;-68
2022/01/08 03:18:02;;;;;;;2.97;2.67;;;;;;;2.15;92.73;96216.00;5088580;28;20201;-69
2022/01/08 03:20:29;;;;;;;3.73;2.83;;;;;;;2.14;92.87;96216.94;5073711;28;20221;-68
2022/01/08 03:23:02;;;;;;;2.70;2.50;;;;;;;2.18;92.72;96228.84;5070907;28;20210;-69
2022/01/08 03:25:28;;;;;;;3.53;3.10;;;;;;;2.20;92.03;96232.16;5080765;28;20195;-68
2022/01/08 03:27:55;;;;;;;2.50;2.40;;;;;;;2.15;92.60;96223.84;5079845;28;20213;-68
2022/01/08 03:30:23;;;;;;;3.00;2.80;;;;;;;2.30;92.96;96228.03;5067229;28;20198;-68
2022/01/08 03:32:49;;;;;;;3.10;2.90;;;;;;;2.32;92.22;96223.53;5062133;28;20225;-68
2022/01/08 03:35:16;;;;;;;3.27;3.07;;;;;;;2.29;92.01;96223.75;5067695;28;20259;-69
2022/01/08 03:37:42;;;;;;;2.93;2.73;;;;;;;2.28;91.72;96224.69;5065753;28;20210;-69
2022/01/08 03:40:09;;;;;;;2.93;2.73;;;;;;;2.27;91.74;96220.38;5066353;28;20205;-70
2022/01/08 03:42:35;;;;;;;2.50;2.40;;;;;;;2.27;92.98;96207.34;5066076;28;20232;-69
2022/01/08 03:45:02;;;;;;;2.67;2.47;;;;;;;2.26;93.62;96221.34;5064768;28;20743;-68
2022/01/08 03:47:52;;;;;;;2.83;2.63;;;;;;;2.28;93.06;96202.03;5064901;28;20332;-68
2022/01/08 03:50:18;;;;;;;2.90;2.70;;;;;;;2.34;93.43;96204.22;5064578;28;20225;-67
2022/01/08 03:52:45;;;;;;;2.70;2.50;;;;;;;2.30;93.53;96207.16;5063193;28;20639;-67
2022/01/08 03:55:12;;;;;;;2.77;2.57;;;;;;;2.38;93.44;96210.06;5063877;28;20222;-68
2022/01/08 03:57:38;;;;;;;2.57;2.37;;;;;;;2.36;93.18;96211.97;5064397;28;20221;-70
2022/01/08 04:00:06;;;;;;;3.00;2.80;;;;;;;2.31;92.56;96206.19;5063628;28;20220;-68
2022/01/08 04:02:34;;;;;;;2.40;2.30;;;;;;;2.27;92.04;96212.56;5064067;28;20331;-69
2022/01/08 04:05:00;;;;;;;2.40;2.30;;;;;;;2.38;92.48;96203.06;5063003;28;20270;-68
2022/01/08 04:07:27;;;;;;;2.30;2.20;;;;;;;2.41;92.18;96209.84;5063587;28;20200;-70
2022/01/08 04:09:53;;;;;;;2.17;2.07;;;;;;;2.52;90.22;96212.56;5063876;28;20209;-66
2022/01/08 04:12:30;;;;;;;1.97;1.87;;;;;;;2.57;89.70;96209.66;5063160;28;20202;-67
2022/01/08 04:15:05;;;;;;;1.93;1.83;;;;;;;2.53;88.64;96198.59;5062599;28;20211;-65
2022/01/08 04:17:33;;;;;;;2.50;2.30;;;;;;;2.70;88.88;96200.88;5063651;28;20323;-65
2022/01/08 04:20:00;;;;;;;2.10;1.90;;;;;;;2.73;88.71;96211.09;5063506;28;20210;-65
2022/01/08 04:22:28;;;;;;;1.60;1.50;;;;;;;2.70;88.63;96203.47;5064212;28;20201;-65
2022/01/08 04:24:56;;;;;;;1.80;1.70;;;;;;;2.64;88.88;96198.69;5064049;28;20216;-65
2022/01/08 04:27:23;;;;;;;1.73;1.63;;;;;;;2.56;89.99;96202.75;5064242;28;20207;-64
2022/01/08 04:29:50;;;;;;;1.73;1.63;;;;;;;2.45;90.95;96211.31;5064150;28;20224;-65
2022/01/08 04:32:16;;;;;;;0.97;0.97;;;;;;;2.44;91.38;96225.34;5063848;28;20218;-65
2022/01/08 04:34:44;;;;;;;1.27;1.27;;;;;;;2.47;91.50;96235.56;5062159;28;20237;-64
2022/01/08 04:37:10;;;;;;;1.00;1.00;;;;;;;2.42;91.80;96250.69;5064115;28;20216;-61
2022/01/08 04:39:37;;;;;;;0.80;0.80;;;;;;;2.35;92.24;96254.63;5064976;28;20225;-65
2022/01/08 04:42:04;;;;;;;0.80;0.80;;;;;;;2.38;92.52;96252.66;5063669;28;20209;-65
2022/01/08 04:44:31;;;;;;;0.87;0.87;;;;;;;2.38;91.45;96249.19;5064592;28;20201;-65
2022/01/08 04:46:57;;;;;;;0.73;0.73;;;;;;;2.48;91.40;96255.47;5064262;28;20206;-64
2022/01/08 04:49:23;;;;;;;0.67;0.67;;;;;;;2.46;90.70;96255.59;5064339;28;20530;-65
2022/01/08 04:51:53;;;;;;;0.50;0.50;;;;;;;2.47;89.61;96239.00;5068554;28;20218;-65
2022/01/08 04:54:20;;;;;;;2.20;0.50;;;;;;;2.53;89.84;96242.97;5069446;28;20220;-65
2022/01/08 04:56:46;;;;;;;0.50;0.50;;;;;;;2.58;89.00;96253.09;5064557;28;20260;-64
2022/01/08 04:59:13;;;;;;;0.50;0.50;;;;;;;2.67;89.01;96253.28;5067904;28;20206;-65
2022/01/08 05:01:40;;;;;;;0.40;0.40;;;;;;;2.70;88.81;96253.09;5066784;28;20230;-65
2022/01/08 05:04:06;;;;;;;0.50;0.50;;;;;;;2.69;89.07;96248.81;5064949;28;20222;-66
2022/01/08 05:06:33;;;;;;;0.40;0.40;;;;;;;2.88;86.74;96240.53;5063379;28;20221;-64
2022/01/08 05:09:01;;;;;;;0.30;0.30;;;;;;;2.92;87.13;96255.91;5064371;28;20559;-64
2022/01/08 05:11:28;;;;;;;0.60;0.60;;;;;;;2.79;87.90;96270.75;5062766;28;20224;-64
2022/01/08 05:13:54;;;;;;;0.30;0.30;;;;;;;2.91;86.98;96272.50;5063474;28;20202;-62
2022/01/08 05:16:21;;;;;;;0.40;0.40;;;;;;;2.89;87.44;96282.22;5062370;28;20268;-64
2022/01/08 05:18:50;;;;;;;0.40;0.40;;;;;;;2.79;89.10;96289.03;5062309;28;20213;-67
2022/01/08 05:21:18;;;;;;;0.43;0.43;;;;;;;2.78;88.70;96300.41;5063711;28;20288;-65
2022/01/08 05:23:45;;;;;;;0.33;0.33;;;;;;;2.77;88.12;96311.78;5064520;28;20268;-65
2022/01/08 05:26:12;;;;;;;0.40;0.40;;;;;;;2.75;89.18;96318.88;5064526;28;20205;-65
2022/01/08 05:28:39;;;;;;;0.77;0.60;;;;;;;2.74;89.22;96322.44;5064787;28;20610;-65
2022/01/08 05:31:05;;;;;;;0.50;0.50;;;;;;;2.74;88.91;96322.44;5062560;28;20210;-65
2022/01/08 05:33:32;;;;;;;0.70;0.70;;;;;;;2.74;89.94;96343.31;5063186;28;20583;-65
2022/01/08 05:35:58;;;;;;;0.63;0.63;;;;;;;2.90;88.57;96343.13;5063157;28;20225;-65
2022/01/08 05:38:25;;;;;;;0.67;0.67;;;;;;;2.80;88.96;96350.72;5065391;28;20209;-65
2022/01/08 05:40:51;;;;;;;0.70;0.70;;;;;;;2.73;89.25;96356.50;5063510;28;20215;-64
2022/01/08 05:43:19;;;;;;;0.70;0.70;;;;;;;2.72;90.17;96360.03;5063921;28;20210;-64
2022/01/08 05:45:45;;;;;;;1.43;0.73;;;;;;;2.89;88.87;96371.00;5061787;28;20530;-64
2022/01/08 05:48:13;;;;;;;0.70;0.70;;;;;;;2.86;89.48;96368.63;5062008;28;20621;-65
2022/01/08 05:50:39;;;;;;;0.57;0.57;;;;;;;2.88;89.80;96369.34;5062063;28;20213;-65
2022/01/08 05:53:06;;;;;;;1.00;0.90;;;;;;;2.95;89.97;96373.22;5062506;28;20206;-64
2022/01/08 05:55:32;;;;;;;2.00;0.73;;;;;;;3.01;88.67;96385.03;5062660;28;20221;-65
2022/01/08 05:57:59;;;;;;;0.67;0.67;;;;;;;2.96;88.92;96374.88;5062665;28;20203;-65
2022/01/08 06:00:27;;;;;;;0.50;0.50;;;;;;;2.89;89.36;96381.47;5062164;28;20515;-65
2022/01/08 06:02:53;;;;;;;0.83;0.43;;;;;;;2.90;89.33;96385.75;5063264;28;20202;-64
2022/01/08 06:05:19;;;;;;;0.40;0.40;;;;;;;2.95;88.76;96393.25;5062212;28;20208;-65
2022/01/08 06:07:46;;;;;;;0.53;0.53;;;;;;;2.96;88.91;96405.38;5062841;28;20214;-66
2022/01/08 06:10:12;;;;;;;0.50;0.50;;;;;;;2.90;89.50;96406.66;5064716;28;20217;-66
2022/01/08 06:12:39;;;;;;;0.30;0.30;;;;;;;2.91;90.08;96421.34;5064304;28;20213;-65
2022/01/08 06:15:06;;;;;;;0.37;0.37;;;;;;;2.90;89.47;96414.47;5061748;28;20237;-65
2022/01/08 06:17:33;;;;;;;0.97;0.40;;;;;;;2.91;89.57;96423.97;5062112;28;20621;-64
2022/01/08 06:20:00;;;;;;;0.60;0.60;;;;;;;2.96;88.78;96434.13;5064682;28;20221;-64
2022/01/08 06:22:26;;;;;;;0.40;0.40;;;;;;;3.01;89.28;96439.88;5063511;28;20198;-64
2022/01/08 06:24:53;;;;;;;0.40;0.40;;;;;;;3.04;88.07;96442.28;5063482;28;20301;-64
2022/01/08 06:27:20;;;;;;;0.40;0.40;;;;;;;3.09;87.30;96455.88;5061788;28;20221;-65
2022/01/08 06:29:46;;;;;;;0.60;0.37;;;;;;;3.07;87.28;96449.06;5062149;28;20220;-65
2022/01/08 06:32:14;;;;;;;0.33;0.33;;;;;;;3.09;87.51;96462.84;5064512;28;20202;-63
2022/01/08 06:34:42;;;;;;;0.50;0.50;;;;;;;3.02;87.96;96457.22;5065730;28;20267;-65
2022/01/08 06:37:08;;;;;;;0.30;0.30;;;;;;;3.08;87.62;96467.28;5064968;28;20213;-64
2022/01/08 06:39:34;;;;;;;0.40;0.40;;;;;;;3.11;87.06;96481.91;5065935;28;20921;-63
2022/01/08 06:42:01;;;;;;;0.40;0.40;;;;;;;3.01;87.82;96486.91;5065212;28;20218;-64
2022/01/08 06:44:27;;;;;;;0.30;0.30;;;;;;;3.00;88.10;96501.72;5065164;28;20213;-66
2022/01/08 06:46:54;;;;;;;0.27;0.27;;;;;;;3.01;88.55;96503.38;5064329;28;20534;-64
2022/01/08 06:49:20;;;;;;;0.87;0.30;;;;;;;3.08;86.60;96505.63;5065359;28;20212;-65
2022/01/08 06:51:48;;;;;;;0.53;0.30;;;;;;;3.03;86.98;96505.91;5066618;28;20222;-65
2022/01/08 06:54:14;;;;;;;0.43;0.30;;;;;;;3.04;87.13;96517.19;5065201;28;20210;-63
2022/01/08 06:56:41;;;;;;;1.20;0.40;;;;;;;3.03;87.19;96515.50;5064988;28;20233;-65
2022/01/08 06:59:07;;;;;;;0.30;0.30;;;;;;;2.98;87.63;96527.09;5064798;28;20205;-64
2022/01/08 07:01:34;;;;;;;0.50;0.50;;;;;;;2.88;87.89;96526.03;5064434;28;20239;-63
2022/01/08 07:04:01;;;;;;;0.83;0.30;;;;;;;2.87;88.61;96529.56;5065378;28;20208;-63
2022/01/08 07:06:28;;;;;;;0.30;0.30;;;;;;;2.87;88.28;96542.63;5062472;28;20202;-65
2022/01/08 07:08:56;;;;;;;0.30;0.30;;;;;;;2.96;87.45;96535.97;5064546;28;20209;-63
2022/01/08 07:11:22;;;;;;;0.30;0.30;;;;;;;3.05;86.38;96550.22;5065493;28;20226;-65
2022/01/08 07:13:49;;;;;;;0.30;0.30;;;;;;;3.03;86.84;96549.47;5065339;28;20206;-65
2022/01/08 07:16:15;;;;;;;1.50;0.50;;;;;;;3.06;85.73;96551.88;5063977;28;20684;-65
2022/01/08 07:18:41;;;;;;;0.40;0.40;;;;;;;2.97;85.94;96548.13;5065633;28;20214;-64
2022/01/08 07:21:08;;;;;;;0.20;0.20;;;;;;;2.93;86.59;96547.47;5065740;28;20320;-62
2022/01/08 07:23:34;;;;;;;0.57;0.40;;;;;;;2.89;87.07;96561.66;5065507;28;20207;-64
2022/01/08 07:26:02;;;;;;;0.50;0.43;;;;;;;2.87;87.28;96560.91;5063408;28;20210;-65
2022/01/08 07:28:29;;;;;;;0.30;0.30;;;;;;;2.80;87.29;96562.22;5065512;28;20224;-64
2022/01/08 07:30:55;;;;;;;0.40;0.40;;;;;;;2.83;87.44;96567.28;5065485;28;20216;-64
2022/01/08 07:33:21;;;;;;;0.40;0.40;;;;;;;2.77;87.48;96557.22;5065288;28;20203;-64
2022/01/08 07:35:48;;;;;;;0.40;0.40;;;;;;;2.75;88.60;96558.25;5065096;28;20226;-65
2022/01/08 07:38:14;;;;;;;0.20;0.20;;;;;;;2.76;87.52;96562.53;5065351;28;20210;-64
2022/01/08 07:40:41;;;;;;;0.30;0.30;;;;;;;2.83;86.70;96566.44;5065912;28;20206;-64
2022/01/08 07:43:09;;;;;;;0.40;0.40;;;;;;;2.76;86.68;96576.44;5064561;28;20224;-64
2022/01/08 07:45:35;;;;;;;0.70;0.60;;;;;;;2.79;86.27;96575.41;5064604;28;20261;-64
2022/01/08 07:48:02;;;;;;;0.83;0.83;;;;;;;2.83;85.15;96582.94;5065377;28;20202;-65
2022/01/08 07:50:28;;;;;;;1.67;0.50;;;;;;;2.82;85.60;96586.50;5065470;28;20652;-65
2022/01/08 07:52:54;;;;;;;0.50;0.50;;;;;;;2.76;85.89;96592.09;5068812;28;20208;-65
2022/01/08 07:55:21;;;;;;;0.80;0.60;;;;;;;2.83;86.31;96600.38;5078649;28;20221;-65
2022/01/08 07:57:48;;;;;;;0.60;0.60;;;;;;;2.91;85.49;96606.78;5068031;28;20209;-64
2022/01/08 08:00:16;;;;;;;0.30;0.30;;;;;;;2.89;85.62;96606.06;5066354;28;20301;-64
2022/01/08 08:02:42;;;;;;;0.50;0.50;;;;;;;2.80;86.33;96624.91;5066801;28;20244;-65
2022/01/08 08:05:09;;;;;;;0.67;0.40;;;;;;;2.82;86.32;96627.44;5065877;28;20195;-64
2022/01/08 08:07:37;;;;;;;0.40;0.40;;;;;;;2.88;85.80;96627.88;5070288;28;20209;-64
2022/01/08 08:10:06;;;;;;;0.60;0.60;;;;;;;2.79;85.84;96635.47;5082844;28;20605;-65
2022/01/08 08:12:32;;;;;;;0.67;0.50;;;;;;;2.73;85.58;96630.63;5069526;28;20231;-65
2022/01/08 08:14:59;;;;;;;0.83;0.83;;;;;;;2.72;86.27;96637.63;5072009;28;20203;-66
2022/01/08 08:17:26;;;;;;;0.70;0.70;;;;;;;2.73;85.50;96639.28;5073217;28;20202;-63
2022/01/08 08:19:53;;;;;;;0.67;0.67;;;;;;;2.80;85.65;96651.00;5076950;28;20192;-64
2022/01/08 08:22:19;;;;;;;1.40;0.70;;;;;;;2.81;84.00;96652.69;5077072;28;20472;-64
2022/01/08 08:24:46;;;;;;;0.70;0.70;;;;;;;2.77;84.33;96653.81;5088650;28;20240;-65
2022/01/08 08:27:12;;;;;;;0.60;0.60;;;;;;;2.74;84.50;96666.22;5076194;28;20199;-65
2022/01/08 08:29:40;;;;;;;0.60;0.60;;;;;;;2.83;83.22;96665.66;5074150;28;20206;-64
2022/01/08 08:32:07;;;;;;;1.17;0.60;;;;;;;2.74;83.45;96666.22;5069702;28;20210;-64
2022/01/08 08:34:35;;;;;;;1.00;0.97;;;;;;;2.74;84.11;96677.50;5068237;28;20197;-64
2022/01/08 08:37:02;;;;;;;1.23;1.13;;;;;;;2.77;83.89;96658.19;5072109;28;20221;-64
2022/01/08 08:39:28;;;;;;;0.87;0.87;;;;;;;2.69;83.60;96674.38;5072734;28;20204;-65
2022/01/08 08:41:55;;;;;;;0.90;0.70;;;;;;;2.79;83.71;96659.81;5078516;28;20217;-64
2022/01/08 08:44:21;;;;;;;0.60;0.60;;;;;;;2.86;83.28;96665.47;5075956;28;20232;-64
2022/01/08 08:46:48;;;;;;;0.93;0.93;;;;;;;2.91;82.70;96660.78;5074374;28;20609;-64
2022/01/08 08:49:14;;;;;;;1.43;0.80;;;;;;;3.00;82.57;96673.28;5068686;28;20208;-63
2022/01/08 08:51:42;;;;;;;1.00;1.00;;;;;;;3.03;81.69;96672.25;5067183;28;20560;-65
2022/01/08 08:54:08;;;;;;;2.07;0.67;;;;;;;3.11;81.23;96680.44;5075048;28;20211;-65
2022/01/08 08:56:35;;;;;;;0.83;0.60;;;;;;;3.16;81.08;96696.66;5075421;28;20234;-65
2022/01/08 08:59:01;;;;;;;1.07;0.70;;;;;;;3.23;80.41;96693.56;5080872;28;20233;-65
2022/01/08 09:01:28;;;;;;;0.93;0.60;;;;;;;3.31;79.46;96693.94;5082175;28;20237;-65
2022/01/08 09:03:54;;;;;;;1.70;1.60;;;;;;;3.37;78.65;96684.84;5082530;28;20195;-64
2022/01/08 09:06:21;;;;;;;1.80;1.70;;;;;;;3.50;78.35;96683.13;5078635;28;20198;-65
2022/01/08 09:08:49;;;;;;;0.93;0.90;;;;;;;3.69;78.26;96686.22;5089490;28;20202;-64
2022/01/08 09:11:15;;;;;;;1.30;0.87;;;;;;;3.71;76.79;96684.34;5087126;28;20203;-65
2022/01/08 09:13:42;;;;;;;1.37;0.80;;;;;;;3.78;76.38;96693.47;5084745;28;20546;-65
2022/01/08 09:16:09;;;;;;;1.03;0.70;;;;;;;3.73;75.85;96694.69;5084817;28;20226;-65
2022/01/08 09:18:35;;;;;;;0.50;0.50;;;;;;;3.63;76.65;96694.47;5082965;28;20202;-64
2022/01/08 09:21:02;;;;;;;1.73;0.97;;;;;;;3.70;78.17;96694.91;5085147;28;20208;-64
2022/01/08 09:23:30;;;;;;;0.60;0.57;;;;;;;3.79;76.89;96697.75;5081816;28;20496;-64
2022/01/08 09:25:58;;;;;;;0.70;0.63;;;;;;;3.80;76.63;96701.22;5081932;28;20266;-66
2022/01/08 09:28:25;;;;;;;0.73;0.50;;;;;;;3.87;77.89;96708.56;5078849;28;20213;-64
2022/01/08 09:30:52;;;;;;;1.23;0.90;;;;;;;3.76;78.09;96711.03;5081930;28;20257;-64
2022/01/08 09:33:19;;;;;;;0.73;0.53;;;;;;;3.74;76.71;96701.63;5077789;28;20218;-64
2022/01/08 09:35:45;;;;;;;0.50;0.50;;;;;;;3.77;75.24;96701.41;5072955;28;20242;-64
2022/01/08 09:38:11;;;;;;;0.73;0.70;;;;;;;3.71;76.10;96700.06;5066445;28;20215;-64
2022/01/08 09:40:38;;;;;;;0.73;0.73;;;;;;;3.71;75.73;96697.44;5079119;28;20209;-64
2022/01/08 09:43:06;;;;;;;0.90;0.90;;;;;;;3.67;75.80;96706.41;5077958;28;20221;-63
2022/01/08 09:45:32;;;;;;;1.20;1.10;;;;;;;3.60;78.33;96720.81;5066954;28;20206;-64
2022/01/08 09:47:59;;;;;;;1.27;0.70;;;;;;;3.74;77.40;96717.31;5066185;28;20218;-65
2022/01/08 09:50:26;;;;;;;0.60;0.60;;;;;;;3.82;78.35;96726.34;5067542;28;20218;-64
2022/01/08 09:52:57;;;;;;;0.80;0.63;;;;;;;3.92;76.07;96732.66;5062998;28;20207;-64
2022/01/08 09:55:24;;;;;;;2.07;0.73;;;;;;;3.86;74.75;96735.66;5064449;28;20198;-64
2022/01/08 09:57:51;;;;;;;0.60;0.60;;;;;;;3.77;75.36;96731.03;5066919;28;20201;-64
2022/01/08 10:00:20;;;;;;;1.03;0.60;;;;;;;3.76;75.66;96739.81;5066079;28;20220;-64
2022/01/08 10:02:46;;;;;;;1.40;1.30;;;;;;;3.81;75.66;96740.34;5068975;28;20226;-66
2022/01/08 10:05:15;;;;;;;0.70;0.70;;;;;;;3.79;77.59;96744.81;5070209;28;20203;-64
2022/01/08 10:07:42;;;;;;;1.43;0.93;;;;;;;3.88;76.25;96735.56;5074996;28;20229;-65
2022/01/08 10:10:12;;;;;;;1.10;0.80;;;;;;;3.87;76.96;96726.88;5075481;28;20207;-65
2022/01/08 10:12:46;;;;;;;1.93;1.70;;;;;;;3.90;79.61;96723.19;5081942;28;20214;-65
2022/01/08 10:18:01;;;;;;;1.30;1.20;;;;;;;3.92;79.88;96711.72;5082166;28;20208;-65
2022/01/08 10:20:34;;;;;;;1.17;0.90;;;;;;;3.91;77.52;96709.19;5069913;28;20222;-63
2022/01/08 10:23:11;;;;;;;1.43;1.10;;;;;;;4.00;76.78;96698.94;5071903;28;20190;-65
2022/01/08 10:25:38;;;;;;;0.90;0.90;;;;;;;4.10;75.37;96693.97;5075018;28;20202;-64
2022/01/08 10:28:06;;;;;;;0.83;0.83;;;;;;;4.03;77.51;96699.72;5071792;28;21197;-65
2022/01/08 10:30:32;;;;;;;1.27;1.17;;;;;;;4.00;76.47;96698.94;5072028;28;20203;-64
2022/01/08 10:33:01;;;;;;;1.40;1.30;;;;;;;4.04;78.00;96698.78;5068473;28;20214;-65
2022/01/08 10:35:54;;;;;;;1.00;1.00;;;;;;;3.98;77.00;96697.38;5068280;28;20248;-65
2022/01/08 10:38:21;;;;;;;2.80;1.23;;;;;;;3.93;75.20;96694.25;5022645;28;20202;-63
2022/01/08 10:40:47;;;;;;;1.83;0.80;;;;;;;3.96;76.45;96692.28;5065798;28;20206;-64
2022/01/08 10:43:21;;;;;;;2.53;1.10;;;;;;;4.00;76.50;96688.50;5066289;28;20222;-64
2022/01/08 10:45:48;;;;;;;2.17;1.57;;;;;;;4.04;75.26;96688.31;5066005;28;20211;-65
2022/01/08 10:48:25;;;;;;;1.30;1.20;;;;;;;4.03;76.08;96697.09;5066458;28;20236;-65
2022/01/08 10:50:51;;;;;;;1.87;1.40;;;;;;;4.11;76.36;96693.00;5065414;28;20313;-64
2022/01/08 10:53:18;;;;;;;1.03;1.03;;;;;;;4.13;78.46;96683.28;5066346;28;20209;-64
2022/01/08 10:55:44;;;;;;;1.40;1.30;;;;;;;4.22;74.72;96677.44;5066089;28;20199;-65
2022/01/08 10:58:11;;;;;;;1.07;1.00;;;;;;;4.21;76.24;96674.94;5067405;28;20213;-65
2022/01/08 11:00:37;;;;;;;1.87;1.20;;;;;;;4.20;75.95;96665.38;5066317;28;20298;-65
2022/01/08 11:03:03;;;;;;;1.43;1.33;;;;;;;4.34;75.46;96658.28;5066617;28;20206;-65
2022/01/08 11:05:32;;;;;;;1.50;1.40;;;;;;;4.36;74.81;96658.16;5071520;28;20210;-65
2022/01/08 11:08:13;;;;;;;1.80;1.53;;;;;;;4.43;74.17;96655.03;5071933;28;20194;-65
2022/01/08 11:10:41;;;;;;;2.23;1.37;;;;;;;4.62;73.85;96654.59;5073287;28;20228;-63
2022/01/08 11:13:09;;;;;;;2.13;1.40;;;;;;;4.59;74.83;96646.13;5075025;28;21499;-64
2022/01/08 11:15:48;;;;;;;2.60;1.27;;;;;;;4.73;76.31;96640.75;5078240;28;20481;-64
2022/01/08 11:18:17;;;;;;;1.40;1.30;;;;;;;4.82;73.39;96633.06;5074567;28;20539;-64
2022/01/08 11:20:46;;;;;;;2.27;1.60;;;;;;;4.85;73.53;96632.84;5071824;28;20289;-65
2022/01/08 11:23:14;;;;;;;1.37;1.10;;;;;;;4.91;72.50;96631.59;5071022;28;20211;-64
2022/01/08 11:25:42;;;;;;;1.47;1.30;;;;;;;4.77;70.40;96624.72;5070142;28;20203;-63
2022/01/08 11:28:11;;;;;;;1.37;1.27;;;;;;;4.90;73.36;96622.06;5068305;28;20207;-65
2022/01/08 11:30:39;;;;;;;1.30;1.13;;;;;;;4.86;71.43;96626.69;5065995;28;20216;-65
2022/01/08 11:33:11;;;;;;;1.37;1.27;;;;;;;4.82;70.17;96625.22;5068572;28;20214;-64
2022/01/08 11:35:38;;;;;;;1.20;1.10;;;;;;;4.84;70.75;96619.88;5069763;28;20238;-63
2022/01/08 11:38:08;;;;;;;0.83;0.83;;;;;;;4.83;70.67;96616.41;5067532;28;20238;-65
2022/01/08 11:40:37;;;;;;;1.30;1.00;;;;;;;4.67;70.34;96623.69;5067958;28;20634;-65
2022/01/08 11:43:05;;;;;;;1.30;1.20;;;;;;;4.67;70.44;96621.06;5068686;28;20199;-65
2022/01/08 11:45:35;;;;;;;1.20;1.20;;;;;;;4.69;71.44;96613.94;5067130;28;20220;-64
2022/01/08 11:48:04;;;;;;;1.00;1.00;;;;;;;4.72;71.30;96613.72;5065673;28;20213;-64
2022/01/08 11:50:31;;;;;;;1.23;1.17;;;;;;;4.70;70.42;96614.78;5065011;28;20199;-64
2022/01/08 11:53:19;;;;;;;0.90;0.90;;;;;;;4.66;71.36;96608.91;5066299;28;20195;-64
2022/01/08 11:55:48;;;;;;;1.10;1.10;;;;;;;4.60;70.72;96614.59;5066086;28;20237;-65
2022/01/08 11:58:20;;;;;;;1.50;1.40;;;;;;;4.53;71.31;96607.28;5065023;28;20219;-64